Terminal Aerodrome Forecast
Issued by NWS

Home | Current Version | Previous Version | Text Only | Print | Product List | Glossary On
Versions: 1 2 3 4 5 6 7 8 9 10 11 12 13 14 15 16
606
FTUS45 KRIW 181123
TAFJAC
TAF
KJAC 181123Z 1812/1912 VRB06KT 5SM -SN OVC020
     FM181700 20009KT P6SM -SN OVC040 WS020/25030KT
     FM190100 18007KT P6SM VCSH OVC035
      AMD LTD TO CLD VIS AND WIND=

USA.gov is the U.S. government's official web portal to all federal, state and local government web resources and services.